sensor_id;sensor_type;location;lat;lon;timestamp;P1;durP1;ratioP1;P2;durP2;ratioP2
11608;SDS011;5860;52.018;8.536;2022-08-21T00:00:23;4.53;;;2.60;;
11608;SDS011;5860;52.018;8.536;2022-08-21T00:03:00;46.40;;;27.77;;
11608;SDS011;5860;52.018;8.536;2022-08-21T00:05:30;16.23;;;7.53;;
11608;SDS011;5860;52.018;8.536;2022-08-21T00:07:58;12.33;;;5.90;;
11608;SDS011;5860;52.018;8.536;2022-08-21T00:10:25;7.90;;;4.33;;
11608;SDS011;5860;52.018;8.536;2022-08-21T00:12:53;8.47;;;3.10;;
11608;SDS011;5860;52.018;8.536;2022-08-21T00:15:21;6.03;;;3.00;;
11608;SDS011;5860;52.018;8.536;2022-08-21T00:17:53;7.33;;;3.27;;
11608;SDS011;5860;52.018;8.536;2022-08-21T00:20:20;7.07;;;3.33;;
11608;SDS011;5860;52.018;8.536;2022-08-21T00:22:48;7.47;;;3.20;;
11608;SDS011;5860;52.018;8.536;2022-08-21T00:25:16;5.90;;;3.60;;
11608;SDS011;5860;52.018;8.536;2022-08-21T00:27:49;9.00;;;3.77;;
11608;SDS011;5860;52.018;8.536;2022-08-21T00:30:18;6.97;;;3.80;;
11608;SDS011;5860;52.018;8.536;2022-08-21T00:32:49;6.80;;;3.47;;
11608;SDS011;5860;52.018;8.536;2022-08-21T00:35:18;7.23;;;3.87;;
11608;SDS011;5860;52.018;8.536;2022-08-21T00:37:47;10.43;;;4.33;;
11608;SDS011;5860;52.018;8.536;2022-08-21T00:40:16;12.60;;;4.60;;
11608;SDS011;5860;52.018;8.536;2022-08-21T00:42:46;7.10;;;4.93;;
11608;SDS011;5860;52.018;8.536;2022-08-21T00:45:24;8.00;;;5.57;;
11608;SDS011;5860;52.018;8.536;2022-08-21T00:47:53;9.10;;;5.30;;
11608;SDS011;5860;52.018;8.536;2022-08-21T00:50:22;10.03;;;5.40;;
11608;SDS011;5860;52.018;8.536;2022-08-21T00:52:51;8.10;;;6.60;;
11608;SDS011;5860;52.018;8.536;2022-08-21T00:55:18;10.90;;;7.37;;
11608;SDS011;5860;52.018;8.536;2022-08-21T00:57:49;11.40;;;8.47;;
11608;SDS011;5860;52.018;8.536;2022-08-21T01:00:21;10.20;;;9.10;;
11608;SDS011;5860;52.018;8.536;2022-08-21T01:02:52;15.23;;;9.23;;
11608;SDS011;5860;52.018;8.536;2022-08-21T01:05:22;13.27;;;9.17;;
11608;SDS011;5860;52.018;8.536;2022-08-21T01:07:49;13.57;;;8.23;;
11608;SDS011;5860;52.018;8.536;2022-08-21T01:10:17;13.87;;;8.70;;
11608;SDS011;5860;52.018;8.536;2022-08-21T01:12:50;9.73;;;8.63;;
11608;SDS011;5860;52.018;8.536;2022-08-21T01:15:19;12.77;;;9.10;;
11608;SDS011;5860;52.018;8.536;2022-08-21T01:17:49;11.43;;;8.83;;
11608;SDS011;5860;52.018;8.536;2022-08-21T01:20:17;14.67;;;10.13;;
11608;SDS011;5860;52.018;8.536;2022-08-21T01:22:44;14.77;;;10.60;;
11608;SDS011;5860;52.018;8.536;2022-08-21T01:25:12;14.73;;;10.33;;
11608;SDS011;5860;52.018;8.536;2022-08-21T01:27:46;12.97;;;9.93;;
11608;SDS011;5860;52.018;8.536;2022-08-21T01:30:16;16.33;;;10.87;;
11608;SDS011;5860;52.018;8.536;2022-08-21T01:32:45;15.13;;;11.70;;
11608;SDS011;5860;52.018;8.536;2022-08-21T01:35:15;15.40;;;11.23;;
11608;SDS011;5860;52.018;8.536;2022-08-21T01:37:43;13.97;;;11.23;;
11608;SDS011;5860;52.018;8.536;2022-08-21T01:40:10;20.87;;;11.77;;
11608;SDS011;5860;52.018;8.536;2022-08-21T01:42:39;17.30;;;12.23;;
11608;SDS011;5860;52.018;8.536;2022-08-21T01:45:06;13.90;;;11.40;;
11608;SDS011;5860;52.018;8.536;2022-08-21T01:47:34;16.90;;;12.27;;
11608;SDS011;5860;52.018;8.536;2022-08-21T01:50:03;15.17;;;12.23;;
11608;SDS011;5860;52.018;8.536;2022-08-21T01:52:33;14.97;;;11.67;;
11608;SDS011;5860;52.018;8.536;2022-08-21T01:55:00;15.67;;;12.43;;
11608;SDS011;5860;52.018;8.536;2022-08-21T01:57:27;13.90;;;11.80;;
11608;SDS011;5860;52.018;8.536;2022-08-21T01:59:54;14.13;;;10.90;;
11608;SDS011;5860;52.018;8.536;2022-08-21T02:02:21;14.67;;;9.40;;
11608;SDS011;5860;52.018;8.536;2022-08-21T02:04:48;10.80;;;7.10;;
11608;SDS011;5860;52.018;8.536;2022-08-21T02:07:15;8.53;;;6.60;;
11608;SDS011;5860;52.018;8.536;2022-08-21T02:09:42;9.47;;;6.53;;
11608;SDS011;5860;52.018;8.536;2022-08-21T02:12:09;10.87;;;6.27;;
11608;SDS011;5860;52.018;8.536;2022-08-21T02:14:37;10.93;;;6.50;;
11608;SDS011;5860;52.018;8.536;2022-08-21T02:17:04;9.73;;;6.00;;
11608;SDS011;5860;52.018;8.536;2022-08-21T02:19:35;11.80;;;7.27;;
11608;SDS011;5860;52.018;8.536;2022-08-21T02:22:06;9.23;;;6.93;;
11608;SDS011;5860;52.018;8.536;2022-08-21T02:24:35;11.40;;;6.57;;
11608;SDS011;5860;52.018;8.536;2022-08-21T02:27:20;8.93;;;6.87;;
11608;SDS011;5860;52.018;8.536;2022-08-21T02:29:51;10.50;;;7.33;;
11608;SDS011;5860;52.018;8.536;2022-08-21T02:32:18;13.50;;;10.77;;
11608;SDS011;5860;52.018;8.536;2022-08-21T02:34:45;16.23;;;11.53;;
11608;SDS011;5860;52.018;8.536;2022-08-21T02:37:12;14.37;;;12.80;;
11608;SDS011;5860;52.018;8.536;2022-08-21T02:39:39;14.20;;;12.10;;
11608;SDS011;5860;52.018;8.536;2022-08-21T02:42:06;16.60;;;13.13;;
11608;SDS011;5860;52.018;8.536;2022-08-21T02:44:33;18.23;;;13.10;;
11608;SDS011;5860;52.018;8.536;2022-08-21T02:47:00;16.63;;;13.30;;
11608;SDS011;5860;52.018;8.536;2022-08-21T02:49:27;15.63;;;13.47;;
11608;SDS011;5860;52.018;8.536;2022-08-21T02:51:53;16.87;;;13.80;;
11608;SDS011;5860;52.018;8.536;2022-08-21T02:54:20;15.97;;;13.23;;
11608;SDS011;5860;52.018;8.536;2022-08-21T02:56:47;19.20;;;13.67;;
11608;SDS011;5860;52.018;8.536;2022-08-21T02:59:14;15.50;;;13.30;;
11608;SDS011;5860;52.018;8.536;2022-08-21T03:01:41;15.93;;;12.97;;
11608;SDS011;5860;52.018;8.536;2022-08-21T03:04:08;18.83;;;13.77;;
11608;SDS011;5860;52.018;8.536;2022-08-21T03:06:34;16.77;;;14.33;;
11608;SDS011;5860;52.018;8.536;2022-08-21T03:09:01;15.67;;;14.00;;
11608;SDS011;5860;52.018;8.536;2022-08-21T03:11:29;19.43;;;13.80;;
11608;SDS011;5860;52.018;8.536;2022-08-21T03:13:55;18.43;;;13.90;;
11608;SDS011;5860;52.018;8.536;2022-08-21T03:16:22;16.20;;;14.50;;
11608;SDS011;5860;52.018;8.536;2022-08-21T03:18:49;18.90;;;13.73;;
11608;SDS011;5860;52.018;8.536;2022-08-21T03:21:16;18.37;;;13.83;;
11608;SDS011;5860;52.018;8.536;2022-08-21T03:23:45;19.93;;;14.47;;
11608;SDS011;5860;52.018;8.536;2022-08-21T03:26:13;18.07;;;13.77;;
11608;SDS011;5860;52.018;8.536;2022-08-21T03:28:41;17.17;;;13.43;;
11608;SDS011;5860;52.018;8.536;2022-08-21T03:31:08;19.30;;;13.97;;
11608;SDS011;5860;52.018;8.536;2022-08-21T03:33:35;18.63;;;13.80;;
11608;SDS011;5860;52.018;8.536;2022-08-21T03:36:05;17.23;;;13.40;;
11608;SDS011;5860;52.018;8.536;2022-08-21T03:38:33;17.33;;;14.37;;
11608;SDS011;5860;52.018;8.536;2022-08-21T03:41:01;15.63;;;13.57;;
11608;SDS011;5860;52.018;8.536;2022-08-21T03:43:30;18.53;;;14.53;;
11608;SDS011;5860;52.018;8.536;2022-08-21T03:45:58;16.37;;;12.60;;
11608;SDS011;5860;52.018;8.536;2022-08-21T03:48:27;18.20;;;13.43;;
11608;SDS011;5860;52.018;8.536;2022-08-21T03:50:55;17.23;;;13.83;;
11608;SDS011;5860;52.018;8.536;2022-08-21T03:53:22;18.83;;;13.70;;
11608;SDS011;5860;52.018;8.536;2022-08-21T03:55:50;16.53;;;13.67;;
11608;SDS011;5860;52.018;8.536;2022-08-21T03:58:21;20.80;;;14.30;;
11608;SDS011;5860;52.018;8.536;2022-08-21T04:00:50;16.07;;;14.20;;
11608;SDS011;5860;52.018;8.536;2022-08-21T04:03:19;18.50;;;13.87;;
11608;SDS011;5860;52.018;8.536;2022-08-21T04:05:46;15.93;;;14.23;;
11608;SDS011;5860;52.018;8.536;2022-08-21T04:08:13;15.37;;;13.40;;
11608;SDS011;5860;52.018;8.536;2022-08-21T04:10:41;17.93;;;13.10;;
11608;SDS011;5860;52.018;8.536;2022-08-21T04:13:09;20.13;;;14.23;;
11608;SDS011;5860;52.018;8.536;2022-08-21T04:15:36;17.03;;;13.57;;
11608;SDS011;5860;52.018;8.536;2022-08-21T04:18:04;22.23;;;13.87;;
11608;SDS011;5860;52.018;8.536;2022-08-21T04:20:31;15.67;;;13.47;;
11608;SDS011;5860;52.018;8.536;2022-08-21T04:22:59;16.50;;;14.20;;
11608;SDS011;5860;52.018;8.536;2022-08-21T04:25:27;16.93;;;14.47;;
11608;SDS011;5860;52.018;8.536;2022-08-21T04:27:54;17.37;;;14.57;;
11608;SDS011;5860;52.018;8.536;2022-08-21T04:30:22;18.00;;;13.77;;
11608;SDS011;5860;52.018;8.536;2022-08-21T04:32:54;16.67;;;14.50;;
11608;SDS011;5860;52.018;8.536;2022-08-21T04:35:23;16.20;;;14.00;;
11608;SDS011;5860;52.018;8.536;2022-08-21T04:37:51;15.40;;;12.97;;
11608;SDS011;5860;52.018;8.536;2022-08-21T04:40:19;18.60;;;14.07;;
11608;SDS011;5860;52.018;8.536;2022-08-21T04:42:48;17.00;;;14.37;;
11608;SDS011;5860;52.018;8.536;2022-08-21T04:45:24;19.60;;;14.50;;
11608;SDS011;5860;52.018;8.536;2022-08-21T04:47:57;20.00;;;14.63;;
11608;SDS011;5860;52.018;8.536;2022-08-21T04:50:29;14.83;;;13.33;;
11608;SDS011;5860;52.018;8.536;2022-08-21T04:53:16;18.17;;;13.63;;
11608;SDS011;5860;52.018;8.536;2022-08-21T04:55:47;18.07;;;14.17;;
11608;SDS011;5860;52.018;8.536;2022-08-21T04:58:16;17.90;;;13.43;;
11608;SDS011;5860;52.018;8.536;2022-08-21T05:00:45;16.67;;;14.17;;
11608;SDS011;5860;52.018;8.536;2022-08-21T05:03:13;18.97;;;14.27;;
11608;SDS011;5860;52.018;8.536;2022-08-21T05:05:42;14.93;;;13.33;;
11608;SDS011;5860;52.018;8.536;2022-08-21T05:08:11;17.67;;;13.70;;
11608;SDS011;5860;52.018;8.536;2022-08-21T05:10:40;16.23;;;13.77;;
11608;SDS011;5860;52.018;8.536;2022-08-21T05:13:09;17.00;;;12.67;;
11608;SDS011;5860;52.018;8.536;2022-08-21T05:15:37;18.60;;;13.07;;
11608;SDS011;5860;52.018;8.536;2022-08-21T05:18:04;15.87;;;11.53;;
11608;SDS011;5860;52.018;8.536;2022-08-21T05:20:32;16.00;;;12.30;;
11608;SDS011;5860;52.018;8.536;2022-08-21T05:23:00;12.67;;;10.47;;
11608;SDS011;5860;52.018;8.536;2022-08-21T05:25:33;14.97;;;10.37;;
11608;SDS011;5860;52.018;8.536;2022-08-21T05:28:00;12.30;;;10.30;;
11608;SDS011;5860;52.018;8.536;2022-08-21T05:30:27;13.27;;;10.07;;
11608;SDS011;5860;52.018;8.536;2022-08-21T05:32:58;12.37;;;9.77;;
11608;SDS011;5860;52.018;8.536;2022-08-21T05:35:29;12.60;;;9.53;;
11608;SDS011;5860;52.018;8.536;2022-08-21T05:37:57;11.97;;;9.93;;
11608;SDS011;5860;52.018;8.536;2022-08-21T05:40:25;11.77;;;10.00;;
11608;SDS011;5860;52.018;8.536;2022-08-21T05:42:53;13.33;;;10.80;;
11608;SDS011;5860;52.018;8.536;2022-08-21T05:45:22;16.03;;;10.13;;
11608;SDS011;5860;52.018;8.536;2022-08-21T05:48:19;11.40;;;8.97;;
11608;SDS011;5860;52.018;8.536;2022-08-21T05:50:48;13.37;;;8.83;;
11608;SDS011;5860;52.018;8.536;2022-08-21T05:53:17;10.02;;;8.18;;
11608;SDS011;5860;52.018;8.536;2022-08-21T05:55:45;14.55;;;8.20;;
11608;SDS011;5860;52.018;8.536;2022-08-21T05:58:15;12.18;;;8.25;;
11608;SDS011;5860;52.018;8.536;2022-08-21T06:00:44;12.32;;;7.97;;
11608;SDS011;5860;52.018;8.536;2022-08-21T06:03:14;8.85;;;7.28;;
11608;SDS011;5860;52.018;8.536;2022-08-21T06:05:43;10.38;;;8.20;;
11608;SDS011;5860;52.018;8.536;2022-08-21T06:08:11;10.05;;;7.90;;
11608;SDS011;5860;52.018;8.536;2022-08-21T06:10:40;11.20;;;8.13;;
11608;SDS011;5860;52.018;8.536;2022-08-21T06:13:07;13.38;;;7.53;;
11608;SDS011;5860;52.018;8.536;2022-08-21T06:15:35;11.38;;;7.97;;
11608;SDS011;5860;52.018;8.536;2022-08-21T06:18:02;9.57;;;7.05;;
11608;SDS011;5860;52.018;8.536;2022-08-21T06:20:29;9.85;;;7.05;;
11608;SDS011;5860;52.018;8.536;2022-08-21T06:22:56;9.57;;;7.85;;
11608;SDS011;5860;52.018;8.536;2022-08-21T06:25:23;10.82;;;7.68;;
11608;SDS011;5860;52.018;8.536;2022-08-21T06:27:50;9.23;;;7.25;;
11608;SDS011;5860;52.018;8.536;2022-08-21T06:30:18;11.55;;;7.40;;
11608;SDS011;5860;52.018;8.536;2022-08-21T06:32:45;10.70;;;6.80;;
11608;SDS011;5860;52.018;8.536;2022-08-21T06:35:12;12.57;;;8.10;;
11608;SDS011;5860;52.018;8.536;2022-08-21T06:37:39;11.75;;;7.00;;
11608;SDS011;5860;52.018;8.536;2022-08-21T06:40:06;10.48;;;7.50;;
11608;SDS011;5860;52.018;8.536;2022-08-21T06:42:38;9.00;;;7.07;;
11608;SDS011;5860;52.018;8.536;2022-08-21T06:45:08;11.25;;;7.18;;
11608;SDS011;5860;52.018;8.536;2022-08-21T06:47:35;10.70;;;7.40;;
11608;SDS011;5860;52.018;8.536;2022-08-21T06:50:03;10.98;;;7.30;;
11608;SDS011;5860;52.018;8.536;2022-08-21T06:52:34;9.40;;;7.03;;
11608;SDS011;5860;52.018;8.536;2022-08-21T06:55:02;10.32;;;8.05;;
11608;SDS011;5860;52.018;8.536;2022-08-21T06:57:32;10.30;;;7.70;;
11608;SDS011;5860;52.018;8.536;2022-08-21T06:59:59;12.43;;;7.32;;
11608;SDS011;5860;52.018;8.536;2022-08-21T07:02:26;10.40;;;7.43;;
11608;SDS011;5860;52.018;8.536;2022-08-21T07:04:53;10.57;;;7.40;;
11608;SDS011;5860;52.018;8.536;2022-08-21T07:07:20;9.85;;;7.68;;
11608;SDS011;5860;52.018;8.536;2022-08-21T07:09:46;7.78;;;6.97;;
11608;SDS011;5860;52.018;8.536;2022-08-21T07:12:13;10.75;;;7.47;;
11608;SDS011;5860;52.018;8.536;2022-08-21T07:14:40;9.80;;;7.10;;
11608;SDS011;5860;52.018;8.536;2022-08-21T07:17:08;8.65;;;6.30;;
11608;SDS011;5860;52.018;8.536;2022-08-21T07:19:35;8.93;;;6.95;;
11608;SDS011;5860;52.018;8.536;2022-08-21T07:22:02;10.75;;;6.90;;
11608;SDS011;5860;52.018;8.536;2022-08-21T07:24:29;9.93;;;6.88;;
11608;SDS011;5860;52.018;8.536;2022-08-21T07:26:56;10.55;;;6.40;;
11608;SDS011;5860;52.018;8.536;2022-08-21T07:29:23;9.63;;;7.20;;
11608;SDS011;5860;52.018;8.536;2022-08-21T07:31:50;9.88;;;6.22;;
11608;SDS011;5860;52.018;8.536;2022-08-21T07:34:17;9.30;;;6.50;;
11608;SDS011;5860;52.018;8.536;2022-08-21T07:36:43;9.45;;;5.50;;
11608;SDS011;5860;52.018;8.536;2022-08-21T07:39:11;9.35;;;5.95;;
11608;SDS011;5860;52.018;8.536;2022-08-21T07:41:38;8.73;;;5.80;;
11608;SDS011;5860;52.018;8.536;2022-08-21T07:44:05;11.57;;;5.47;;
11608;SDS011;5860;52.018;8.536;2022-08-21T07:46:32;8.05;;;5.47;;
11608;SDS011;5860;52.018;8.536;2022-08-21T07:48:58;9.15;;;5.72;;
11608;SDS011;5860;52.018;8.536;2022-08-21T07:51:26;8.68;;;4.78;;
11608;SDS011;5860;52.018;8.536;2022-08-21T07:53:55;10.70;;;6.03;;
11608;SDS011;5860;52.018;8.536;2022-08-21T07:56:23;8.27;;;5.07;;
11608;SDS011;5860;52.018;8.536;2022-08-21T07:58:50;7.47;;;5.53;;
11608;SDS011;5860;52.018;8.536;2022-08-21T08:01:18;7.03;;;4.75;;
11608;SDS011;5860;52.018;8.536;2022-08-21T08:03:45;7.05;;;4.93;;
11608;SDS011;5860;52.018;8.536;2022-08-21T08:06:12;8.77;;;5.13;;
11608;SDS011;5860;52.018;8.536;2022-08-21T08:08:40;8.55;;;4.93;;
11608;SDS011;5860;52.018;8.536;2022-08-21T08:11:08;8.73;;;5.35;;
11608;SDS011;5860;52.018;8.536;2022-08-21T08:13:41;6.75;;;4.50;;
11608;SDS011;5860;52.018;8.536;2022-08-21T08:16:10;9.25;;;4.35;;
11608;SDS011;5860;52.018;8.536;2022-08-21T08:18:37;7.95;;;4.05;;
11608;SDS011;5860;52.018;8.536;2022-08-21T08:21:04;9.43;;;3.97;;
11608;SDS011;5860;52.018;8.536;2022-08-21T08:23:32;7.70;;;3.42;;
11608;SDS011;5860;52.018;8.536;2022-08-21T08:25:59;6.35;;;2.65;;
11608;SDS011;5860;52.018;8.536;2022-08-21T08:28:29;9.38;;;2.97;;
11608;SDS011;5860;52.018;8.536;2022-08-21T08:30:58;6.30;;;3.55;;
11608;SDS011;5860;52.018;8.536;2022-08-21T08:33:25;6.50;;;2.60;;
11608;SDS011;5860;52.018;8.536;2022-08-21T08:35:53;5.95;;;3.22;;
11608;SDS011;5860;52.018;8.536;2022-08-21T08:38:21;4.25;;;2.78;;
11608;SDS011;5860;52.018;8.536;2022-08-21T08:43:44;8.55;;;3.08;;
11608;SDS011;5860;52.018;8.536;2022-08-21T08:46:18;6.82;;;2.95;;
11608;SDS011;5860;52.018;8.536;2022-08-21T08:48:52;8.68;;;4.53;;
11608;SDS011;5860;52.018;8.536;2022-08-21T08:51:59;6.68;;;3.28;;
11608;SDS011;5860;52.018;8.536;2022-08-21T08:54:30;5.97;;;3.05;;
11608;SDS011;5860;52.018;8.536;2022-08-21T08:57:04;7.65;;;3.60;;
11608;SDS011;5860;52.018;8.536;2022-08-21T08:59:39;8.63;;;3.00;;
11608;SDS011;5860;52.018;8.536;2022-08-21T09:02:13;7.97;;;2.58;;
11608;SDS011;5860;52.018;8.536;2022-08-21T09:04:42;6.63;;;3.03;;
11608;SDS011;5860;52.018;8.536;2022-08-21T09:12:50;7.25;;;2.40;;
11608;SDS011;5860;52.018;8.536;2022-08-21T09:15:20;7.95;;;3.53;;
11608;SDS011;5860;52.018;8.536;2022-08-21T09:18:17;8.35;;;2.75;;
11608;SDS011;5860;52.018;8.536;2022-08-21T09:23:46;7.82;;;3.45;;
11608;SDS011;5860;52.018;8.536;2022-08-21T09:26:18;12.10;;;3.55;;
11608;SDS011;5860;52.018;8.536;2022-08-21T09:28:51;11.55;;;3.47;;
11608;SDS011;5860;52.018;8.536;2022-08-21T09:31:22;8.10;;;2.80;;
11608;SDS011;5860;52.018;8.536;2022-08-21T09:33:59;8.32;;;3.72;;
11608;SDS011;5860;52.018;8.536;2022-08-21T09:36:33;5.70;;;3.33;;
11608;SDS011;5860;52.018;8.536;2022-08-21T09:39:10;8.18;;;3.40;;
11608;SDS011;5860;52.018;8.536;2022-08-21T09:41:39;8.40;;;2.75;;
11608;SDS011;5860;52.018;8.536;2022-08-21T09:44:07;7.70;;;2.80;;
11608;SDS011;5860;52.018;8.536;2022-08-21T09:46:34;7.65;;;3.40;;
11608;SDS011;5860;52.018;8.536;2022-08-21T09:49:02;9.40;;;3.72;;
11608;SDS011;5860;52.018;8.536;2022-08-21T09:51:35;8.13;;;3.90;;
11608;SDS011;5860;52.018;8.536;2022-08-21T09:56:37;7.45;;;3.70;;
11608;SDS011;5860;52.018;8.536;2022-08-21T10:02:22;8.75;;;4.55;;
11608;SDS011;5860;52.018;8.536;2022-08-21T10:04:59;9.13;;;4.00;;
11608;SDS011;5860;52.018;8.536;2022-08-21T10:07:49;8.82;;;3.38;;
11608;SDS011;5860;52.018;8.536;2022-08-21T10:10:18;6.28;;;3.33;;
11608;SDS011;5860;52.018;8.536;2022-08-21T10:18:35;7.20;;;3.47;;
11608;SDS011;5860;52.018;8.536;2022-08-21T10:21:22;6.40;;;3.30;;
11608;SDS011;5860;52.018;8.536;2022-08-21T10:24:17;8.10;;;3.65;;
11608;SDS011;5860;52.018;8.536;2022-08-21T10:27:09;6.38;;;3.00;;
11608;SDS011;5860;52.018;8.536;2022-08-21T10:37:38;8.45;;;2.80;;
11608;SDS011;5860;52.018;8.536;2022-08-21T10:40:29;6.60;;;2.70;;
11608;SDS011;5860;52.018;8.536;2022-08-21T10:48:06;5.88;;;2.63;;
11608;SDS011;5860;52.018;8.536;2022-08-21T10:50:41;5.78;;;2.65;;
11608;SDS011;5860;52.018;8.536;2022-08-21T10:58:47;6.07;;;2.42;;
11608;SDS011;5860;52.018;8.536;2022-08-21T11:01:31;4.50;;;2.47;;
11608;SDS011;5860;52.018;8.536;2022-08-21T11:06:44;7.25;;;2.63;;
11608;SDS011;5860;52.018;8.536;2022-08-21T11:09:15;7.50;;;2.30;;
11608;SDS011;5860;52.018;8.536;2022-08-21T11:14:54;6.65;;;2.42;;
11608;SDS011;5860;52.018;8.536;2022-08-21T11:17:31;5.57;;;2.08;;
11608;SDS011;5860;52.018;8.536;2022-08-21T11:22:47;6.95;;;2.80;;
11608;SDS011;5860;52.018;8.536;2022-08-21T11:28:03;5.35;;;2.47;;
11608;SDS011;5860;52.018;8.536;2022-08-21T11:30:48;4.82;;;2.88;;
11608;SDS011;5860;52.018;8.536;2022-08-21T11:33:46;6.32;;;2.60;;
11608;SDS011;5860;52.018;8.536;2022-08-21T11:47:35;5.63;;;2.20;;
11608;SDS011;5860;52.018;8.536;2022-08-21T11:50:32;8.05;;;3.50;;
11608;SDS011;5860;52.018;8.536;2022-08-21T11:53:05;4.55;;;2.55;;
11608;SDS011;5860;52.018;8.536;2022-08-21T11:55:52;6.15;;;2.75;;
11608;SDS011;5860;52.018;8.536;2022-08-21T12:01:39;4.18;;;2.40;;
11608;SDS011;5860;52.018;8.536;2022-08-21T12:04:32;6.30;;;2.90;;
11608;SDS011;5860;52.018;8.536;2022-08-21T12:07:10;5.65;;;2.22;;
11608;SDS011;5860;52.018;8.536;2022-08-21T12:09:54;6.07;;;2.50;;
11608;SDS011;5860;52.018;8.536;2022-08-21T12:12:25;3.53;;;2.20;;
11608;SDS011;5860;52.018;8.536;2022-08-21T12:15:04;4.75;;;2.40;;
11608;SDS011;5860;52.018;8.536;2022-08-21T12:17:36;6.38;;;2.55;;
11608;SDS011;5860;52.018;8.536;2022-08-21T12:20:27;5.80;;;2.35;;
11608;SDS011;5860;52.018;8.536;2022-08-21T12:23:24;4.53;;;2.25;;
11608;SDS011;5860;52.018;8.536;2022-08-21T12:28:37;6.22;;;2.67;;
11608;SDS011;5860;52.018;8.536;2022-08-21T12:31:16;7.68;;;2.58;;
11608;SDS011;5860;52.018;8.536;2022-08-21T12:33:52;5.05;;;2.45;;
11608;SDS011;5860;52.018;8.536;2022-08-21T12:36:30;5.22;;;2.63;;
11608;SDS011;5860;52.018;8.536;2022-08-21T12:39:12;6.00;;;2.60;;
11608;SDS011;5860;52.018;8.536;2022-08-21T12:41:46;6.10;;;2.95;;
11608;SDS011;5860;52.018;8.536;2022-08-21T12:44:20;6.25;;;2.90;;
11608;SDS011;5860;52.018;8.536;2022-08-21T12:46:58;7.40;;;2.50;;
11608;SDS011;5860;52.018;8.536;2022-08-21T12:49:34;6.65;;;2.40;;
11608;SDS011;5860;52.018;8.536;2022-08-21T12:54:47;5.55;;;2.30;;
11608;SDS011;5860;52.018;8.536;2022-08-21T12:57:35;12.85;;;8.77;;
11608;SDS011;5860;52.018;8.536;2022-08-21T13:00:05;5.65;;;2.50;;
11608;SDS011;5860;52.018;8.536;2022-08-21T13:02:46;8.38;;;2.20;;
11608;SDS011;5860;52.018;8.536;2022-08-21T13:05:16;4.30;;;1.95;;
11608;SDS011;5860;52.018;8.536;2022-08-21T13:08:04;5.32;;;1.90;;
11608;SDS011;5860;52.018;8.536;2022-08-21T13:10:34;4.97;;;2.20;;
11608;SDS011;5860;52.018;8.536;2022-08-21T13:13:04;4.85;;;1.80;;
11608;SDS011;5860;52.018;8.536;2022-08-21T13:15:38;4.13;;;1.67;;
11608;SDS011;5860;52.018;8.536;2022-08-21T13:18:21;6.53;;;2.10;;
11608;SDS011;5860;52.018;8.536;2022-08-21T13:20:49;6.85;;;1.50;;
11608;SDS011;5860;52.018;8.536;2022-08-21T13:23:25;5.15;;;1.88;;
11608;SDS011;5860;52.018;8.536;2022-08-21T13:25:54;5.50;;;1.83;;
11608;SDS011;5860;52.018;8.536;2022-08-21T13:28:32;6.53;;;1.50;;
11608;SDS011;5860;52.018;8.536;2022-08-21T13:31:00;3.05;;;1.73;;
11608;SDS011;5860;52.018;8.536;2022-08-21T13:33:30;6.25;;;1.92;;
11608;SDS011;5860;52.018;8.536;2022-08-21T13:38:38;3.72;;;1.88;;
11608;SDS011;5860;52.018;8.536;2022-08-21T13:41:13;4.03;;;1.88;;
11608;SDS011;5860;52.018;8.536;2022-08-21T13:44:39;3.00;;;1.90;;
11608;SDS011;5860;52.018;8.536;2022-08-21T13:47:06;5.15;;;1.80;;
11608;SDS011;5860;52.018;8.536;2022-08-21T13:49:36;4.22;;;2.10;;
11608;SDS011;5860;52.018;8.536;2022-08-21T13:52:13;4.00;;;1.60;;
11608;SDS011;5860;52.018;8.536;2022-08-21T13:54:52;4.97;;;2.08;;
11608;SDS011;5860;52.018;8.536;2022-08-21T13:57:30;4.20;;;1.95;;
11608;SDS011;5860;52.018;8.536;2022-08-21T14:03:23;4.50;;;1.90;;
11608;SDS011;5860;52.018;8.536;2022-08-21T14:05:58;4.78;;;1.98;;
11608;SDS011;5860;52.018;8.536;2022-08-21T14:10:55;5.18;;;1.70;;
11608;SDS011;5860;52.018;8.536;2022-08-21T14:16:12;6.10;;;2.13;;
11608;SDS011;5860;52.018;8.536;2022-08-21T14:18:48;6.97;;;2.22;;
11608;SDS011;5860;52.018;8.536;2022-08-21T14:21:29;3.50;;;1.85;;
11608;SDS011;5860;52.018;8.536;2022-08-21T14:27:03;5.35;;;2.03;;
11608;SDS011;5860;52.018;8.536;2022-08-21T14:29:34;5.20;;;1.80;;
11608;SDS011;5860;52.018;8.536;2022-08-21T14:32:27;4.90;;;2.13;;
11608;SDS011;5860;52.018;8.536;2022-08-21T14:34:58;3.67;;;1.88;;
11608;SDS011;5860;52.018;8.536;2022-08-21T14:37:25;5.45;;;1.75;;
11608;SDS011;5860;52.018;8.536;2022-08-21T14:39:52;3.50;;;1.70;;
11608;SDS011;5860;52.018;8.536;2022-08-21T14:42:19;3.80;;;1.38;;
11608;SDS011;5860;52.018;8.536;2022-08-21T14:44:46;4.85;;;1.50;;
11608;SDS011;5860;52.018;8.536;2022-08-21T14:47:13;5.88;;;1.50;;
11608;SDS011;5860;52.018;8.536;2022-08-21T14:49:40;5.35;;;1.50;;
11608;SDS011;5860;52.018;8.536;2022-08-21T14:52:07;4.32;;;1.35;;
11608;SDS011;5860;52.018;8.536;2022-08-21T14:54:34;4.75;;;1.10;;
11608;SDS011;5860;52.018;8.536;2022-08-21T14:57:04;2.65;;;1.50;;
11608;SDS011;5860;52.018;8.536;2022-08-21T14:59:34;3.28;;;1.27;;
11608;SDS011;5860;52.018;8.536;2022-08-21T15:02:02;2.92;;;1.20;;
11608;SDS011;5860;52.018;8.536;2022-08-21T15:04:33;3.35;;;1.35;;
11608;SDS011;5860;52.018;8.536;2022-08-21T15:07:00;2.78;;;1.10;;
11608;SDS011;5860;52.018;8.536;2022-08-21T15:09:28;3.20;;;1.23;;
11608;SDS011;5860;52.018;8.536;2022-08-21T15:11:55;5.40;;;1.02;;
11608;SDS011;5860;52.018;8.536;2022-08-21T15:14:26;2.10;;;1.10;;
11608;SDS011;5860;52.018;8.536;2022-08-21T15:16:55;4.10;;;1.00;;
11608;SDS011;5860;52.018;8.536;2022-08-21T15:19:22;2.55;;;1.10;;
11608;SDS011;5860;52.018;8.536;2022-08-21T15:21:49;2.05;;;1.00;;
11608;SDS011;5860;52.018;8.536;2022-08-21T15:24:16;2.88;;;1.10;;
11608;SDS011;5860;52.018;8.536;2022-08-21T15:26:43;3.85;;;1.13;;
11608;SDS011;5860;52.018;8.536;2022-08-21T15:29:11;2.58;;;1.30;;
11608;SDS011;5860;52.018;8.536;2022-08-21T15:31:49;2.60;;;1.08;;
11608;SDS011;5860;52.018;8.536;2022-08-21T15:34:25;2.05;;;1.15;;
11608;SDS011;5860;52.018;8.536;2022-08-21T15:36:54;2.70;;;1.60;;
11608;SDS011;5860;52.018;8.536;2022-08-21T15:39:25;4.40;;;1.25;;
11608;SDS011;5860;52.018;8.536;2022-08-21T15:41:56;3.95;;;1.20;;
11608;SDS011;5860;52.018;8.536;2022-08-21T15:44:24;2.00;;;1.00;;
11608;SDS011;5860;52.018;8.536;2022-08-21T15:46:53;3.63;;;1.30;;
11608;SDS011;5860;52.018;8.536;2022-08-21T15:49:20;4.18;;;1.15;;
11608;SDS011;5860;52.018;8.536;2022-08-21T15:51:47;4.25;;;2.17;;
11608;SDS011;5860;52.018;8.536;2022-08-21T15:54:14;2.47;;;1.40;;
11608;SDS011;5860;52.018;8.536;2022-08-21T15:56:43;2.70;;;1.10;;
11608;SDS011;5860;52.018;8.536;2022-08-21T15:59:15;2.28;;;1.10;;
11608;SDS011;5860;52.018;8.536;2022-08-21T16:01:51;1.60;;;0.95;;
11608;SDS011;5860;52.018;8.536;2022-08-21T16:04:23;3.22;;;1.10;;
11608;SDS011;5860;52.018;8.536;2022-08-21T16:06:52;2.03;;;1.00;;
11608;SDS011;5860;52.018;8.536;2022-08-21T16:09:25;2.47;;;1.20;;
11608;SDS011;5860;52.018;8.536;2022-08-21T16:11:52;4.07;;;1.30;;
11608;SDS011;5860;52.018;8.536;2022-08-21T16:14:19;4.68;;;2.10;;
11608;SDS011;5860;52.018;8.536;2022-08-21T16:16:46;3.90;;;1.40;;
11608;SDS011;5860;52.018;8.536;2022-08-21T16:19:13;3.83;;;1.42;;
11608;SDS011;5860;52.018;8.536;2022-08-21T16:21:40;5.85;;;1.15;;
11608;SDS011;5860;52.018;8.536;2022-08-21T16:24:07;2.53;;;1.30;;
11608;SDS011;5860;52.018;8.536;2022-08-21T16:26:34;2.72;;;1.55;;
11608;SDS011;5860;52.018;8.536;2022-08-21T16:29:01;1.85;;;1.33;;
11608;SDS011;5860;52.018;8.536;2022-08-21T16:31:29;3.58;;;1.40;;
11608;SDS011;5860;52.018;8.536;2022-08-21T16:33:57;2.05;;;1.00;;
11608;SDS011;5860;52.018;8.536;2022-08-21T16:36:25;1.95;;;1.10;;
11608;SDS011;5860;52.018;8.536;2022-08-21T16:38:56;2.53;;;1.00;;
11608;SDS011;5860;52.018;8.536;2022-08-21T16:41:23;2.40;;;1.20;;